sensor_id;sensor_type;location;lat;lon;timestamp;pressure;altitude;pressure_sealevel;temperature;humidity
23953;BME280;12163;49.316;6.092;2023-03-01T00:00:04;100403.72;;;1.27;55.17
23953;BME280;12163;49.316;6.092;2023-03-01T00:02:30;100400.66;;;1.24;55.34
23953;BME280;12163;49.316;6.092;2023-03-01T00:04:57;100393.69;;;1.23;55.24
23953;BME280;12163;49.316;6.092;2023-03-01T00:07:24;100395.34;;;1.24;55.30
23953;BME280;12163;49.316;6.092;2023-03-01T00:09:50;100402.69;;;1.22;55.20
23953;BME280;12163;49.316;6.092;2023-03-01T00:12:17;100399.44;;;1.20;55.23
23953;BME280;12163;49.316;6.092;2023-03-01T00:14:43;100411.50;;;1.16;55.67
23953;BME280;12163;49.316;6.092;2023-03-01T00:17:10;100404.97;;;1.12;55.61
23953;BME280;12163;49.316;6.092;2023-03-01T00:19:37;100399.00;;;1.10;55.75
23953;BME280;12163;49.316;6.092;2023-03-01T00:22:03;100391.66;;;1.05;55.68
23953;BME280;12163;49.316;6.092;2023-03-01T00:24:30;100397.16;;;1.04;55.90
23953;BME280;12163;49.316;6.092;2023-03-01T00:26:56;100400.84;;;1.03;55.74
23953;BME280;12163;49.316;6.092;2023-03-01T00:29:24;100398.00;;;1.04;55.90
23953;BME280;12163;49.316;6.092;2023-03-01T00:31:51;100398.59;;;1.00;56.07
23953;BME280;12163;49.316;6.092;2023-03-01T00:34:18;100395.75;;;0.95;55.94
23953;BME280;12163;49.316;6.092;2023-03-01T00:36:44;100393.69;;;0.90;55.79
23953;BME280;12163;49.316;6.092;2023-03-01T00:39:13;100391.63;;;0.86;56.56
23953;BME280;12163;49.316;6.092;2023-03-01T00:41:41;100386.94;;;0.81;56.35
23953;BME280;12163;49.316;6.092;2023-03-01T00:44:08;100390.81;;;0.79;56.55
23953;BME280;12163;49.316;6.092;2023-03-01T00:46:35;100387.53;;;0.77;56.34
23953;BME280;12163;49.316;6.092;2023-03-01T00:49:02;100387.53;;;0.77;56.91
23953;BME280;12163;49.316;6.092;2023-03-01T00:51:31;100391.22;;;0.76;56.65
23953;BME280;12163;49.316;6.092;2023-03-01T00:54:00;100380.78;;;0.74;56.56
23953;BME280;12163;49.316;6.092;2023-03-01T00:56:28;100381.38;;;0.76;56.92
23953;BME280;12163;49.316;6.092;2023-03-01T00:58:56;100385.06;;;0.75;57.00
23953;BME280;12163;49.316;6.092;2023-03-01T01:01:26;100391.22;;;0.76;56.92
23953;BME280;12163;49.316;6.092;2023-03-01T01:03:59;100377.31;;;0.74;56.88
23953;BME280;12163;49.316;6.092;2023-03-01T01:06:28;100383.03;;;0.71;56.90
23953;BME280;12163;49.316;6.092;2023-03-01T01:08:56;100378.94;;;0.68;56.91
23953;BME280;12163;49.316;6.092;2023-03-01T01:11:25;100382.59;;;0.67;57.09
23953;BME280;12163;49.316;6.092;2023-03-01T01:13:51;100378.91;;;0.62;56.83
23953;BME280;12163;49.316;6.092;2023-03-01T01:16:20;100371.94;;;0.54;57.40
23953;BME280;12163;49.316;6.092;2023-03-01T01:18:47;100372.56;;;0.50;57.19
23953;BME280;12163;49.316;6.092;2023-03-01T01:21:15;100376.66;;;0.46;57.61
23953;BME280;12163;49.316;6.092;2023-03-01T01:23:43;100369.06;;;0.43;57.64
23953;BME280;12163;49.316;6.092;2023-03-01T01:26:16;100371.09;;;0.41;57.87
23953;BME280;12163;49.316;6.092;2023-03-01T01:28:43;100363.75;;;0.43;57.91
23953;BME280;12163;49.316;6.092;2023-03-01T01:31:09;100360.72;;;0.46;57.99
23953;BME280;12163;49.316;6.092;2023-03-01T01:33:36;100360.91;;;0.44;58.12
23953;BME280;12163;49.316;6.092;2023-03-01T01:36:07;100356.63;;;0.43;57.87
23953;BME280;12163;49.316;6.092;2023-03-01T01:38:35;100354.97;;;0.42;57.71
23953;BME280;12163;49.316;6.092;2023-03-01T01:41:04;100354.56;;;0.39;58.01
23953;BME280;12163;49.316;6.092;2023-03-01T01:43:38;100355.97;;;0.35;57.96
23953;BME280;12163;49.316;6.092;2023-03-01T01:49:05;100357.97;;;0.20;57.95
23953;BME280;12163;49.316;6.092;2023-03-01T01:51:40;100355.09;;;0.15;58.41
23953;BME280;12163;49.316;6.092;2023-03-01T01:54:15;100360.81;;;0.12;58.73
23953;BME280;12163;49.316;6.092;2023-03-01T01:56:49;100359.16;;;0.11;58.82
23953;BME280;12163;49.316;6.092;2023-03-01T01:59:17;100355.91;;;0.09;58.68
23953;BME280;12163;49.316;6.092;2023-03-01T02:01:44;100352.63;;;0.07;59.02
23953;BME280;12163;49.316;6.092;2023-03-01T02:04:10;100341.56;;;0.03;58.97
23953;BME280;12163;49.316;6.092;2023-03-01T02:06:40;100348.91;;;0.01;59.03
23953;BME280;12163;49.316;6.092;2023-03-01T02:09:12;100353.03;;;0.04;59.66
23953;BME280;12163;49.316;6.092;2023-03-01T02:11:40;100342.81;;;0.07;59.52
23953;BME280;12163;49.316;6.092;2023-03-01T02:14:07;100342.63;;;0.09;59.47
23953;BME280;12163;49.316;6.092;2023-03-01T02:16:34;100338.56;;;0.13;59.46
23953;BME280;12163;49.316;6.092;2023-03-01T02:19:03;100333.06;;;0.14;59.16
23953;BME280;12163;49.316;6.092;2023-03-01T02:24:20;100327.75;;;0.21;59.43
23953;BME280;12163;49.316;6.092;2023-03-01T02:26:52;100329.81;;;0.25;59.39
23953;BME280;12163;49.316;6.092;2023-03-01T02:29:22;100323.31;;;0.28;58.92
23953;BME280;12163;49.316;6.092;2023-03-01T02:31:49;100312.69;;;0.28;59.34
23953;BME280;12163;49.316;6.092;2023-03-01T02:34:23;100309.41;;;0.26;59.13
23953;BME280;12163;49.316;6.092;2023-03-01T02:36:57;100305.75;;;0.27;59.26
23953;BME280;12163;49.316;6.092;2023-03-01T02:39:30;100307.38;;;0.28;58.96
23953;BME280;12163;49.316;6.092;2023-03-01T02:41:59;100302.69;;;0.30;58.97
23953;BME280;12163;49.316;6.092;2023-03-01T02:44:26;100300.81;;;0.30;58.94
23953;BME280;12163;49.316;6.092;2023-03-01T02:46:56;100287.78;;;0.29;59.03
23953;BME280;12163;49.316;6.092;2023-03-01T02:49:25;100296.75;;;0.28;59.29
23953;BME280;12163;49.316;6.092;2023-03-01T02:52:05;100293.06;;;0.22;59.12
23953;BME280;12163;49.316;6.092;2023-03-01T02:54:54;100277.72;;;0.18;58.98
23953;BME280;12163;49.316;6.092;2023-03-01T02:57:25;100276.72;;;0.19;58.97
23953;BME280;12163;49.316;6.092;2023-03-01T02:59:55;100267.13;;;0.18;59.16
23953;BME280;12163;49.316;6.092;2023-03-01T03:02:29;100272.22;;;0.13;59.48
23953;BME280;12163;49.316;6.092;2023-03-01T03:05:37;100265.69;;;0.09;59.42
23953;BME280;12163;49.316;6.092;2023-03-01T03:07:58;100260.16;;;0.04;59.57
23953;BME280;12163;49.316;6.092;2023-03-01T03:10:28;100256.91;;;0.02;59.52
23953;BME280;12163;49.316;6.092;2023-03-01T03:13:04;100263.41;;;-0.01;59.97
23953;BME280;12163;49.316;6.092;2023-03-01T03:15:31;100255.25;;;0.01;59.60
23953;BME280;12163;49.316;6.092;2023-03-01T03:17:58;100260.31;;;-0.04;59.92
23953;BME280;12163;49.316;6.092;2023-03-01T03:20:27;100261.75;;;-0.08;59.89
23953;BME280;12163;49.316;6.092;2023-03-01T03:22:57;100250.94;;;-0.13;60.27
23953;BME280;12163;49.316;6.092;2023-03-01T03:25:26;100251.34;;;-0.16;59.95
23953;BME280;12163;49.316;6.092;2023-03-01T03:27:54;100250.50;;;-0.16;60.54
23953;BME280;12163;49.316;6.092;2023-03-01T03:30:26;100255.63;;;-0.15;60.40
23953;BME280;12163;49.316;6.092;2023-03-01T03:32:52;100261.94;;;-0.16;60.40
23953;BME280;12163;49.316;6.092;2023-03-01T03:37:51;100252.75;;;-0.20;60.66
23953;BME280;12163;49.316;6.092;2023-03-01T03:40:40;100247.00;;;-0.23;60.83
23953;BME280;12163;49.316;6.092;2023-03-01T03:43:10;100260.72;;;-0.20;60.95
23953;BME280;12163;49.316;6.092;2023-03-01T03:45:37;100255.00;;;-0.17;60.96
23953;BME280;12163;49.316;6.092;2023-03-01T03:48:06;100253.97;;;-0.16;60.89
23953;BME280;12163;49.316;6.092;2023-03-01T03:50:33;100251.34;;;-0.16;60.79
23953;BME280;12163;49.316;6.092;2023-03-01T03:53:01;100259.91;;;-0.14;60.66
23953;BME280;12163;49.316;6.092;2023-03-01T03:55:28;100254.59;;;-0.14;60.88
23953;BME280;12163;49.316;6.092;2023-03-01T03:57:58;100249.88;;;-0.18;61.15
23953;BME280;12163;49.316;6.092;2023-03-01T04:00:28;100252.13;;;-0.22;61.17
23953;BME280;12163;49.316;6.092;2023-03-01T04:02:55;100243.53;;;-0.24;61.11
23953;BME280;12163;49.316;6.092;2023-03-01T04:05:23;100249.25;;;-0.20;61.53
23953;BME280;12163;49.316;6.092;2023-03-01T04:07:50;100241.53;;;-0.22;61.08
23953;BME280;12163;49.316;6.092;2023-03-01T04:10:40;100237.59;;;-0.26;61.12
23953;BME280;12163;49.316;6.092;2023-03-01T04:13:12;100233.31;;;-0.27;61.35
23953;BME280;12163;49.316;6.092;2023-03-01T04:15:39;100227.63;;;-0.30;61.67
23953;BME280;12163;49.316;6.092;2023-03-01T04:18:07;100226.78;;;-0.31;61.45
23953;BME280;12163;49.316;6.092;2023-03-01T04:20:35;100217.19;;;-0.32;61.66
23953;BME280;12163;49.316;6.092;2023-03-01T04:23:04;100228.44;;;-0.30;61.92
23953;BME280;12163;49.316;6.092;2023-03-01T04:25:39;100212.50;;;-0.30;62.12
23953;BME280;12163;49.316;6.092;2023-03-01T04:28:07;100213.53;;;-0.31;61.66
23953;BME280;12163;49.316;6.092;2023-03-01T04:30:35;100219.06;;;-0.32;62.10
23953;BME280;12163;49.316;6.092;2023-03-01T04:33:03;100222.69;;;-0.33;62.04
23953;BME280;12163;49.316;6.092;2023-03-01T04:35:31;100213.75;;;-0.32;62.08
23953;BME280;12163;49.316;6.092;2023-03-01T04:37:58;100213.09;;;-0.34;62.05
23953;BME280;12163;49.316;6.092;2023-03-01T04:40:24;100220.66;;;-0.38;62.14
23953;BME280;12163;49.316;6.092;2023-03-01T04:42:51;100219.81;;;-0.38;62.41
23953;BME280;12163;49.316;6.092;2023-03-01T04:45:18;100219.03;;;-0.39;62.38
23953;BME280;12163;49.316;6.092;2023-03-01T04:47:46;100208.22;;;-0.37;62.12
23953;BME280;12163;49.316;6.092;2023-03-01T04:50:15;100209.66;;;-0.35;62.23
23953;BME280;12163;49.316;6.092;2023-03-01T04:52:43;100207.63;;;-0.33;62.47
23953;BME280;12163;49.316;6.092;2023-03-01T04:55:10;100210.28;;;-0.33;62.28
23953;BME280;12163;49.316;6.092;2023-03-01T04:57:37;100210.09;;;-0.31;62.40
23953;BME280;12163;49.316;6.092;2023-03-01T05:00:05;100209.88;;;-0.30;62.45
23953;BME280;12163;49.316;6.092;2023-03-01T05:02:51;100212.50;;;-0.30;62.19
23953;BME280;12163;49.316;6.092;2023-03-01T05:05:30;100211.09;;;-0.32;62.39
23953;BME280;12163;49.316;6.092;2023-03-01T05:08:00;100218.84;;;-0.31;62.55
23953;BME280;12163;49.316;6.092;2023-03-01T05:10:28;100219.44;;;-0.29;63.16
23953;BME280;12163;49.316;6.092;2023-03-01T05:12:56;100212.34;;;-0.28;62.49
23953;BME280;12163;49.316;6.092;2023-03-01T05:15:26;100214.75;;;-0.27;62.59
23953;BME280;12163;49.316;6.092;2023-03-01T05:17:56;100216.63;;;-0.27;62.74
23953;BME280;12163;49.316;6.092;2023-03-01T05:20:25;100217.41;;;-0.27;62.57
23953;BME280;12163;49.316;6.092;2023-03-01T05:22:55;100211.72;;;-0.24;62.92
23953;BME280;12163;49.316;6.092;2023-03-01T05:25:22;100211.09;;;-0.26;63.24
23953;BME280;12163;49.316;6.092;2023-03-01T05:27:48;100206.41;;;-0.24;63.21
23953;BME280;12163;49.316;6.092;2023-03-01T05:30:15;100201.09;;;-0.24;63.08
23953;BME280;12163;49.316;6.092;2023-03-01T05:32:47;100203.56;;;-0.22;62.96
23953;BME280;12163;49.316;6.092;2023-03-01T05:35:17;100211.53;;;-0.22;63.22
23953;BME280;12163;49.316;6.092;2023-03-01T05:37:46;100200.50;;;-0.19;63.67
23953;BME280;12163;49.316;6.092;2023-03-01T05:40:16;100210.31;;;-0.20;63.08
23953;BME280;12163;49.316;6.092;2023-03-01T05:42:49;100200.72;;;-0.21;63.25
23953;BME280;12163;49.316;6.092;2023-03-01T05:45:18;100189.09;;;-0.20;63.25
23953;BME280;12163;49.316;6.092;2023-03-01T05:47:46;100196.22;;;-0.20;62.98
23953;BME280;12163;49.316;6.092;2023-03-01T05:50:25;100193.16;;;-0.24;63.28
23953;BME280;12163;49.316;6.092;2023-03-01T05:52:57;100191.50;;;-0.25;63.40
23953;BME280;12163;49.316;6.092;2023-03-01T05:55:25;100184.88;;;0.24;65.91
23953;BME280;12163;49.316;6.092;2023-03-01T05:57:54;100177.63;;;1.60;68.31
23953;BME280;12163;49.316;6.092;2023-03-01T06:00:21;100173.41;;;2.63;64.85
23953;BME280;12163;49.316;6.092;2023-03-01T06:02:51;100172.34;;;3.24;61.05
23953;BME280;12163;49.316;6.092;2023-03-01T06:05:20;100176.50;;;3.02;57.96
23953;BME280;12163;49.316;6.092;2023-03-01T06:07:47;100173.31;;;2.51;57.98
23953;BME280;12163;49.316;6.092;2023-03-01T06:10:17;100179.38;;;2.09;58.59
23953;BME280;12163;49.316;6.092;2023-03-01T06:12:44;100175.31;;;1.69;58.87
23953;BME280;12163;49.316;6.092;2023-03-01T06:15:12;100174.44;;;1.38;58.80
23953;BME280;12163;49.316;6.092;2023-03-01T06:17:41;100176.56;;;1.17;59.82
23953;BME280;12163;49.316;6.092;2023-03-01T06:20:11;100178.88;;;1.00;60.00
23953;BME280;12163;49.316;6.092;2023-03-01T06:22:38;100183.97;;;0.89;60.34
23953;BME280;12163;49.316;6.092;2023-03-01T06:25:06;100187.28;;;0.78;60.26
23953;BME280;12163;49.316;6.092;2023-03-01T06:27:33;100186.91;;;0.68;60.64
23953;BME280;12163;49.316;6.092;2023-03-01T06:29:59;100192.81;;;0.63;60.92
23953;BME280;12163;49.316;6.092;2023-03-01T06:32:26;100198.13;;;0.57;60.80
23953;BME280;12163;49.316;6.092;2023-03-01T06:34:52;100202.03;;;0.48;61.18
23953;BME280;12163;49.316;6.092;2023-03-01T06:37:19;100199.16;;;0.49;62.87
23953;BME280;12163;49.316;6.092;2023-03-01T06:39:46;100199.97;;;0.63;62.71
23953;BME280;12163;49.316;6.092;2023-03-01T06:42:12;100200.16;;;0.87;62.39
23953;BME280;12163;49.316;6.092;2023-03-01T06:44:39;100196.47;;;1.52;62.98
23953;BME280;12163;49.316;6.092;2023-03-01T06:47:05;100198.34;;;1.88;61.94
23953;BME280;12163;49.316;6.092;2023-03-01T06:49:32;100198.16;;;2.14;61.35
23953;BME280;12163;49.316;6.092;2023-03-01T06:51:58;100198.41;;;2.37;60.08
23953;BME280;12163;49.316;6.092;2023-03-01T06:54:25;100204.47;;;2.20;59.07
23953;BME280;12163;49.316;6.092;2023-03-01T06:56:52;100202.78;;;1.94;58.84
23953;BME280;12163;49.316;6.092;2023-03-01T06:59:18;100202.50;;;1.71;59.04
23953;BME280;12163;49.316;6.092;2023-03-01T07:01:45;100197.91;;;1.54;59.16
23953;BME280;12163;49.316;6.092;2023-03-01T07:04:13;100191.22;;;1.39;59.79
23953;BME280;12163;49.316;6.092;2023-03-01T07:06:39;100199.81;;;1.34;59.86
23953;BME280;12163;49.316;6.092;2023-03-01T07:09:06;100190.47;;;1.25;59.84
23953;BME280;12163;49.316;6.092;2023-03-01T07:11:32;100189.63;;;1.18;60.00
23953;BME280;12163;49.316;6.092;2023-03-01T07:13:59;100191.31;;;1.13;60.18
23953;BME280;12163;49.316;6.092;2023-03-01T07:16:26;100188.03;;;1.11;60.48
23953;BME280;12163;49.316;6.092;2023-03-01T07:18:53;100181.06;;;1.10;60.52
23953;BME280;12163;49.316;6.092;2023-03-01T07:21:20;100180.47;;;1.08;60.55
23953;BME280;12163;49.316;6.092;2023-03-01T07:23:47;100179.06;;;1.12;60.83
23953;BME280;12163;49.316;6.092;2023-03-01T07:26:14;100177.78;;;1.14;60.82
23953;BME280;12163;49.316;6.092;2023-03-01T07:28:41;100172.06;;;1.17;60.68
23953;BME280;12163;49.316;6.092;2023-03-01T07:31:07;100181.66;;;1.18;60.74
23953;BME280;12163;49.316;6.092;2023-03-01T07:33:34;100171.63;;;1.20;60.93
23953;BME280;12163;49.316;6.092;2023-03-01T07:36:02;100172.03;;;1.24;61.03
23953;BME280;12163;49.316;6.092;2023-03-01T07:38:29;100168.75;;;1.28;60.68
23953;BME280;12163;49.316;6.092;2023-03-01T07:41:01;100168.53;;;1.30;60.63
23953;BME280;12163;49.316;6.092;2023-03-01T07:43:29;100169.13;;;1.32;60.34
23953;BME280;12163;49.316;6.092;2023-03-01T07:46:03;100170.38;;;1.36;60.68
23953;BME280;12163;49.316;6.092;2023-03-01T07:48:31;100172.78;;;1.44;60.38
23953;BME280;12163;49.316;6.092;2023-03-01T07:50:59;100164.56;;;1.52;60.84
23953;BME280;12163;49.316;6.092;2023-03-01T07:53:26;100166.38;;;1.58;60.46
23953;BME280;12163;49.316;6.092;2023-03-01T07:56:09;100163.31;;;1.61;60.33
23953;BME280;12163;49.316;6.092;2023-03-01T07:58:37;100166.13;;;1.65;60.12
23953;BME280;12163;49.316;6.092;2023-03-01T08:01:06;100165.50;;;1.70;59.98
23953;BME280;12163;49.316;6.092;2023-03-01T08:03:34;100161.16;;;1.75;60.12
23953;BME280;12163;49.316;6.092;2023-03-01T08:06:06;100163.56;;;1.83;59.87
23953;BME280;12163;49.316;6.092;2023-03-01T08:08:34;100160.66;;;1.91;60.19
23953;BME280;12163;49.316;6.092;2023-03-01T08:11:02;100163.66;;;2.01;59.56
23953;BME280;12163;49.316;6.092;2023-03-01T08:13:30;100152.75;;;2.09;59.32
23953;BME280;12163;49.316;6.092;2023-03-01T08:16:01;100151.66;;;2.17;59.14
23953;BME280;12163;49.316;6.092;2023-03-01T08:18:29;100150.38;;;2.26;58.77
23953;BME280;12163;49.316;6.092;2023-03-01T08:20:55;100140.06;;;2.36;59.25
23953;BME280;12163;49.316;6.092;2023-03-01T08:23:22;100150.81;;;2.47;58.55
23953;BME280;12163;49.316;6.092;2023-03-01T08:25:49;100146.06;;;2.49;57.95
23953;BME280;12163;49.316;6.092;2023-03-01T08:28:15;100139.28;;;2.53;57.89
23953;BME280;12163;49.316;6.092;2023-03-01T08:30:42;100144.31;;;2.61;57.86
23953;BME280;12163;49.316;6.092;2023-03-01T08:33:08;100136.66;;;2.71;57.94
23953;BME280;12163;49.316;6.092;2023-03-01T08:35:35;100142.84;;;2.83;57.74
23953;BME280;12163;49.316;6.092;2023-03-01T08:38:01;100135.19;;;2.93;57.42
23953;BME280;12163;49.316;6.092;2023-03-01T08:40:28;100126.88;;;3.01;57.18
23953;BME280;12163;49.316;6.092;2023-03-01T08:42:54;100130.28;;;3.08;57.10
23953;BME280;12163;49.316;6.092;2023-03-01T08:45:21;100122.66;;;3.12;56.60
23953;BME280;12163;49.316;6.092;2023-03-01T08:47:52;100118.94;;;3.13;56.00
23953;BME280;12163;49.316;6.092;2023-03-01T08:50:18;100123.03;;;3.15;56.22
23953;BME280;12163;49.316;6.092;2023-03-01T08:52:45;100111.91;;;3.18;55.89
23953;BME280;12163;49.316;6.092;2023-03-01T08:55:12;100108.13;;;3.26;55.86
23953;BME280;12163;49.316;6.092;2023-03-01T08:57:39;100111.06;;;3.35;56.43
23953;BME280;12163;49.316;6.092;2023-03-01T09:00:06;100102.06;;;3.48;55.85
23953;BME280;12163;49.316;6.092;2023-03-01T09:02:35;100104.88;;;3.53;55.15
23953;BME280;12163;49.316;6.092;2023-03-01T09:05:01;100108.00;;;3.50;54.83
23953;BME280;12163;49.316;6.092;2023-03-01T09:07:28;100107.06;;;3.44;54.77
23953;BME280;12163;49.316;6.092;2023-03-01T09:09:55;100099.16;;;3.38;54.99
23953;BME280;12163;49.316;6.092;2023-03-01T09:12:22;100087.72;;;3.31;54.86
23953;BME280;12163;49.316;6.092;2023-03-01T09:14:48;100098.84;;;3.28;54.94
23953;BME280;12163;49.316;6.092;2023-03-01T09:17:15;100100.03;;;3.32;55.39
23953;BME280;12163;49.316;6.092;2023-03-01T09:19:42;100095.19;;;3.40;55.18
23953;BME280;12163;49.316;6.092;2023-03-01T09:22:08;100096.75;;;3.48;54.92
23953;BME280;12163;49.316;6.092;2023-03-01T09:24:35;100103.41;;;3.57;54.80
23953;BME280;12163;49.316;6.092;2023-03-01T09:27:01;100089.53;;;3.66;54.57
23953;BME280;12163;49.316;6.092;2023-03-01T09:29:29;100098.00;;;3.75;54.66
23953;BME280;12163;49.316;6.092;2023-03-01T09:31:55;100081.88;;;3.81;54.53
23953;BME280;12163;49.316;6.092;2023-03-01T09:34:23;100084.25;;;3.89;53.71
23953;BME280;12163;49.316;6.092;2023-03-01T09:36:50;100080.88;;;3.94;53.73
23953;BME280;12163;49.316;6.092;2023-03-01T09:39:18;100073.22;;;3.97;53.84
23953;BME280;12163;49.316;6.092;2023-03-01T09:42:02;100074.63;;;4.00;53.73
23953;BME280;12163;49.316;6.092;2023-03-01T09:47:12;100075.78;;;4.04;53.25
23953;BME280;12163;49.316;6.092;2023-03-01T09:49:43;100071.38;;;4.09;53.45
23953;BME280;12163;49.316;6.092;2023-03-01T09:52:26;100069.53;;;4.10;53.25
23953;BME280;12163;49.316;6.092;2023-03-01T09:54:56;100070.22;;;4.17;53.54
23953;BME280;12163;49.316;6.092;2023-03-01T10:00:15;100070.09;;;4.46;53.51
23953;BME280;12163;49.316;6.092;2023-03-01T10:03:10;100077.91;;;4.59;52.45
23953;BME280;12163;49.316;6.092;2023-03-01T10:05:44;100055.94;;;4.57;52.39
23953;BME280;12163;49.316;6.092;2023-03-01T10:10:58;100064.25;;;4.84;52.56
23953;BME280;12163;49.316;6.092;2023-03-01T10:13:46;100055.06;;;4.91;51.71
23953;BME280;12163;49.316;6.092;2023-03-01T10:18:56;100040.25;;;5.11;51.63
23953;BME280;12163;49.316;6.092;2023-03-01T10:21:27;100034.41;;;5.14;51.22
23953;BME280;12163;49.316;6.092;2023-03-01T10:23:59;100029.25;;;5.24;51.40
23953;BME280;12163;49.316;6.092;2023-03-01T10:29:09;100034.53;;;5.36;50.46
23953;BME280;12163;49.316;6.092;2023-03-01T10:34:28;100016.25;;;5.44;50.39
23953;BME280;12163;49.316;6.092;2023-03-01T10:37:08;100020.63;;;5.50;50.17
23953;BME280;12163;49.316;6.092;2023-03-01T10:39:35;100022.94;;;5.58;50.01
23953;BME280;12163;49.316;6.092;2023-03-01T10:42:05;100019.50;;;5.63;50.09
23953;BME280;12163;49.316;6.092;2023-03-01T10:47:01;100015.47;;;5.77;49.32
23953;BME280;12163;49.316;6.092;2023-03-01T10:49:28;100013.84;;;5.76;49.67
23953;BME280;12163;49.316;6.092;2023-03-01T10:51:54;100004.44;;;5.73;49.96
23953;BME280;12163;49.316;6.092;2023-03-01T10:54:27;100006.19;;;5.79;49.63
23953;BME280;12163;49.316;6.092;2023-03-01T10:57:00;100007.25;;;5.95;49.54
23953;BME280;12163;49.316;6.092;2023-03-01T10:59:33;100005.25;;;6.07;49.59
23953;BME280;12163;49.316;6.092;2023-03-01T11:10:20;99987.03;;;6.42;48.33
23953;BME280;12163;49.316;6.092;2023-03-01T11:12:47;99987.91;;;6.47;48.54
23953;BME280;12163;49.316;6.092;2023-03-01T11:15:26;99989.16;;;6.61;48.24
23953;BME280;12163;49.316;6.092;2023-03-01T11:17:53;99977.81;;;6.75;47.83
23953;BME280;12163;49.316;6.092;2023-03-01T11:20:38;99969.63;;;6.87;47.44
23953;BME280;12163;49.316;6.092;2023-03-01T11:23:11;99959.53;;;6.94;47.50
23953;BME280;12163;49.316;6.092;2023-03-01T11:25:44;99966.66;;;7.10;47.72
23953;BME280;12163;49.316;6.092;2023-03-01T11:28:16;99957.72;;;7.26;47.23
23953;BME280;12163;49.316;6.092;2023-03-01T11:36:31;99957.50;;;7.59;46.70
23953;BME280;12163;49.316;6.092;2023-03-01T11:41:56;99948.50;;;7.75;45.50
23953;BME280;12163;49.316;6.092;2023-03-01T11:44:40;99937.19;;;7.73;45.25
23953;BME280;12163;49.316;6.092;2023-03-01T11:47:30;99929.63;;;7.65;45.23
23953;BME280;12163;49.316;6.092;2023-03-01T11:50:16;99915.09;;;7.61;46.11
23953;BME280;12163;49.316;6.092;2023-03-01T12:03:54;99893.69;;;8.12;45.05
23953;BME280;12163;49.316;6.092;2023-03-01T12:25:13;99855.78;;;8.14;43.58
23953;BME280;12163;49.316;6.092;2023-03-01T12:38:48;99838.22;;;8.57;43.18
23953;BME280;12163;49.316;6.092;2023-03-01T12:47:10;99825.25;;;8.39;42.80
23953;BME280;12163;49.316;6.092;2023-03-01T12:49:47;99821.00;;;8.43;43.45
23953;BME280;12163;49.316;6.092;2023-03-01T12:52:33;99821.56;;;8.60;43.30
23953;BME280;12163;49.316;6.092;2023-03-01T12:55:08;99818.91;;;8.80;43.10
23953;BME280;12163;49.316;6.092;2023-03-01T13:01:00;99798.47;;;8.99;42.69
23953;BME280;12163;49.316;6.092;2023-03-01T13:09:41;99785.56;;;9.11;42.08
23953;BME280;12163;49.316;6.092;2023-03-01T13:17:51;99754.81;;;9.47;41.82
23953;BME280;12163;49.316;6.092;2023-03-01T13:20:21;99755.63;;;9.53;40.89
23953;BME280;12163;49.316;6.092;2023-03-01T13:23:04;99763.41;;;9.54;41.03
23953;BME280;12163;49.316;6.092;2023-03-01T13:25:32;99765.31;;;9.49;40.93
23953;BME280;12163;49.316;6.092;2023-03-01T13:28:40;99762.34;;;9.45;40.91
23953;BME280;12163;49.316;6.092;2023-03-01T13:33:51;99772.25;;;9.80;40.19
23953;BME280;12163;49.316;6.092;2023-03-01T13:49:56;99731.81;;;10.76;38.66
23953;BME280;12163;49.316;6.092;2023-03-01T13:52:43;99723.38;;;11.16;38.71
23953;BME280;12163;49.316;6.092;2023-03-01T13:57:43;99717.03;;;11.82;37.36
23953;BME280;12163;49.316;6.092;2023-03-01T14:00:32;99714.69;;;11.94;36.65
23953;BME280;12163;49.316;6.092;2023-03-01T14:03:14;99728.00;;;12.33;36.77
23953;BME280;12163;49.316;6.092;2023-03-01T14:08:39;99716.75;;;12.95;35.36
23953;BME280;12163;49.316;6.092;2023-03-01T14:19:45;99709.56;;;13.49;34.18
23953;BME280;12163;49.316;6.092;2023-03-01T14:22:33;99714.78;;;13.86;34.33
23953;BME280;12163;49.316;6.092;2023-03-01T14:25:03;99703.16;;;13.99;32.53
23953;BME280;12163;49.316;6.092;2023-03-01T14:27:39;99688.66;;;14.17;32.55
23953;BME280;12163;49.316;6.092;2023-03-01T14:30:15;99687.44;;;13.96;32.32
23953;BME280;12163;49.316;6.092;2023-03-01T14:33:01;99694.91;;;13.77;33.05
23953;BME280;12163;49.316;6.092;2023-03-01T14:35:31;99691.69;;;13.88;32.73
23953;BME280;12163;49.316;6.092;2023-03-01T14:37:58;99689.66;;;13.94;32.21
23953;BME280;12163;49.316;6.092;2023-03-01T14:42:56;99679.00;;;14.24;31.88
23953;BME280;12163;49.316;6.092;2023-03-01T14:45:27;99675.72;;;14.36;31.34
23953;BME280;12163;49.316;6.092;2023-03-01T14:47:55;99675.97;;;14.26;31.78
23953;BME280;12163;49.316;6.092;2023-03-01T14:50:31;99669.56;;;14.22;31.23
23953;BME280;12163;49.316;6.092;2023-03-01T14:53:03;99674.66;;;14.10;31.98
23953;BME280;12163;49.316;6.092;2023-03-01T14:55:38;99680.78;;;14.29;31.36
23953;BME280;12163;49.316;6.092;2023-03-01T14:58:18;99666.72;;;14.27;31.64
23953;BME280;12163;49.316;6.092;2023-03-01T15:05:51;99667.94;;;15.09;31.21
23953;BME280;12163;49.316;6.092;2023-03-01T15:08:22;99663.88;;;15.19;30.38
23953;BME280;12163;49.316;6.092;2023-03-01T15:13:33;99663.63;;;15.29;30.34
23953;BME280;12163;49.316;6.092;2023-03-01T15:16:17;99662.69;;;15.12;30.28
23953;BME280;12163;49.316;6.092;2023-03-01T15:21:24;99667.94;;;15.09;30.71
23953;BME280;12163;49.316;6.092;2023-03-01T15:24:06;99667.06;;;14.91;30.30
23953;BME280;12163;49.316;6.092;2023-03-01T15:27:00;99680.84;;;14.73;30.15
23953;BME280;12163;49.316;6.092;2023-03-01T15:29:33;99669.63;;;14.52;30.47
23953;BME280;12163;49.316;6.092;2023-03-01T15:34:50;99676.59;;;14.23;31.80
23953;BME280;12163;49.316;6.092;2023-03-01T15:37:46;99678.19;;;14.24;31.48
23953;BME280;12163;49.316;6.092;2023-03-01T15:42:59;99671.34;;;14.13;31.24
23953;BME280;12163;49.316;6.092;2023-03-01T15:45:28;99675.41;;;14.15;31.40
23953;BME280;12163;49.316;6.092;2023-03-01T15:47:56;99676.78;;;14.13;31.72
23953;BME280;12163;49.316;6.092;2023-03-01T15:50:35;99669.97;;;14.02;31.42